Tiempo atmosférico en la estación meteorológica de Motril, Granada (3 m.)



Fecha
DESCASC
Temp. máxima en grados centígrados (hora)
DESCASC
Temp. mínima en grados centígrados (hora)
DESCASC
Temp. media en grados centígrados
DESCASC
Racha de viento máxima en m/sg (hora)
DESCASC
Velocidad máxima media en intervalos de 10 minutos(hora)
DESCASC
Precipitaciones diarias en mm
DESCASC
Precipitaciones de 00:00 a 06:00 en mm
DESCASC
Precipitaciones de 06:00 a 12:00 en mm
DESCASC
Precipitaciones de 12:00 a 18:00 en mm
DESCASC
Precipitaciones de 18:00 a 24:00 en mm
DESCASC
22-04-2019 19.7 (15:00) 12.3 (07:20) 16 12.5 (17:50) 6.67 (23:59) 0 0 0 0 0
21-04-2019 16.4 (17:00) 13.4 (06:50) 14.9 7.22 (16:20) 3.89 (16:30) 6.1 0.9 2.9 1.9 0.4
20-04-2019 20.1 (12:50) 12.4 (02:40) 16.3 7.78 (13:30) 6.11 (13:40) 0 0 0 0 0
19-04-2019 20.6 (10:10) 11.8 (04:40) 16.2 7.78 (11:30) 6.39 (11:40) 0 0 0 0 0
18-04-2019 17.7 (14:40) 12.5 (00:00) 15.1 8.61 (05:40) 4.17 (05:30) 12.9 1.5 11.4 0 0
17-04-2019 21.2 (14:20) 12.5 (00:00) 16.9 12.5 (15:10) 8.89 (15:10) 0 0 0 0 0
16-04-2019 20.5 (19:40) 13.9 (00:00) 17.2 11.11 (02:00) 7.5 (12:50) 0 0 0 0 0
15-04-2019 23.3 (12:20) 13.9 (00:00) 18.6 9.72 (21:20) 5 (20:10) 0 0 0 0 0
14-04-2019 21.3 (13:00) 13 (00:00) 17.1 4.44 (05:30) 2.78 (17:50) 0 0 0 0 0
13-04-2019 21.1 (14:20) 11.4 (00:00) 16.3 6.67 (16:40) 3.89 (16:40) 0 0 0 0 0
12-04-2019 22.3 (10:40) 11.8 (00:00) 17 6.11 (18:00) 3.61 (17:10) 0 0 0 0 0
11-04-2019 20.9 (11:20) 12.1 (00:00) 16.5 11.67 (18:40) 5.83 (16:20) 0 0 0 0 0
10-04-2019 20.7 (15:40) 14.6 (00:00) 17.7 16.67 (16:10) 7.22 (09:00) 0 0 0 0 0
09-04-2019 18.6 (12:30) 14.1 (00:00) 16.4 15 (18:20) 7.78 (14:40) 0 0 0 0 0
08-04-2019 19.2 (18:00) 12.5 (00:00) 15.9 13.06 (17:10) 6.39 (12:10) 0 0 0 0 0
07-04-2019 18.8 (13:20) 10.3 (00:00) 14.5 16.39 (10:10) 8.33 (13:50) 0.8 0.8 0 0 0
06-04-2019 16.3 (14:40) 10.4 (00:00) 13.3 14.44 (13:10) 7.78 (13:00) 6.6 0 0 5.9 0.7
05-04-2019 16 (19:40) 10.9 (00:00) 13.4 18.61 (11:30) 8.61 (11:30) 11.3 0 5.7 5.6 0
04-04-2019 19.8 (18:20) 14.5 (00:00) 17.1 9.72 (11:50) 6.94 (12:40) 0 0 0 0 0
03-04-2019 20.4 (23:10) 11.1 (00:00) 15.8 9.72 (23:10) 5 (23:50) 0 0 0 0 0
02-04-2019 19.5 (10:00) 11.3 (00:00) 15.4 8.61 (19:50) 4.17 (20:00) 0 0 0 0 0
01-04-2019 20.3 (12:10) 12.5 (00:00) 16.4 10.83 (18:00) 5.28 (16:30) 0 0 0 0 0
31-03-2019 15.9 (17:40) 13.4 (00:00) 14.6 6.67 (20:20) 4.17 (01:00) 6.8 2 1.3 3.5 0
30-03-2019 18.4 (10:00) 10.9 (00:00) 14.6 14.72 (13:50) 10 (14:00) 0.2 0 0 0 0.2
29-03-2019 20.8 (10:30) 8.6 (00:00) 14.7 13.33 (15:50) 8.61 (16:00) 0 0 0 0 0
28-03-2019 18.3 (09:10) 9.6 (00:00) 13.9 15.83 (11:50) 10 (17:10) 0 0 0 0 0
27-03-2019 21.6 (10:50) 11.9 (00:00) 16.8 15 (14:30) 10.28 (16:40) 0 0 0 0 0
26-03-2019 -- (--) -- (--) -- -- (--) -- (--) 0 0 0 0 0
25-03-2019 21.8 (09:30) 11.3 (00:00) 16.5 8.61 (16:40) 6.39 (16:00) 0 0 0 0 0

Gráficas

Temp. máximas Temp. mínimas Temp. medias Precipitaciones Rachas de viento máximas Velocidades máximas media en intervalos de 10 minutos

Datos horarios

Fecha y hora oficial Temperatura (ºC) Velocidad del viento (km/h) Dirección del viento Racha (km/h) Dirección de racha Precipitación (mm) Presión (hPa) Tendencia (hPa) Humedad (%)
2019-04-23 23:00:00 15.1 22 Oeste 51 Sudoeste 0 1006.5 3 67
2019-04-23 22:00:00 15.3 21 Oeste 53 Oeste 0 1005.3 1.9 68
2019-04-23 21:00:00 15.4 24 Oeste 44 Oeste 0 1004 1.4 65
2019-04-23 20:00:00 15.7 20 Oeste 48 Oeste 0 1003.5 1.4 69
2019-04-23 19:00:00 16.1 24 Sudoeste 49 Sudoeste 0 1003.4 1.5 65
2019-04-23 18:00:00 16 25 Sudoeste 48 Sudoeste 0 1002.6 0.5 67
2019-04-23 17:00:00 15.6 26 Sudoeste 45 Oeste 0 1002.1 0.2 67
2019-04-23 16:00:00 15.8 24 Sudoeste 39 Sudoeste 0 1001.9 0.1 63
2019-04-23 15:00:00 14.7 10 Oeste 22 Sudoeste 0.1 1002.1 0.6 75
2019-04-23 14:00:00 14.5 5 Noroeste 26 Oeste 0.3 1001.9 1 89
2019-04-23 13:00:00 14.4 7 Oeste 27 Oeste 1.2 1001.8 1.3 93
2019-04-23 12:00:00 14.7 0 Calma 19 Oeste 2.4 1001.5 0.9 97
2019-04-23 11:00:00 14.4 12 Noroeste 31 Oeste 3.2 1000.9 0.6 95
2019-04-23 10:00:00 15.4 5 Oeste 15 Oeste 0.4 1000.5 0.5 93
2019-04-23 09:00:00 15.8 2 Noroeste 7 Oeste 0 1000.6 0.4 88
2019-04-23 08:00:00 15.6 4 Oeste 20 Oeste 0 1000.3 -0.2 88
2019-04-23 07:00:00 15.9 6 Oeste 24 Sudoeste 0 1000 -0.7 85
2019-04-23 06:00:00 15.8 8 Oeste 20 Sudoeste 0 1000.2 -0.9 83
2019-04-23 05:00:00 15.7 12 Oeste 26 Sudoeste 0 1000.5 -1.1 84
2019-04-23 04:00:00 15.9 13 Oeste 30 Sudoeste 0 1000.7 -1.2 81
2019-04-23 03:00:00 16.2 14 Oeste 30 Sudoeste 0 1001.1 -0.5 81
2019-04-23 02:00:00 16 6 Oeste 28 Oeste 0 1001.6 0.1 80
2019-04-23 01:00:00 16.3 17 Oeste 50 Oeste 0 1001.9 1 84
2019-04-23 00:00:00 16.5 24 Oeste 44 Oeste 0 1001.6 1.3 85
2019-04-22 23:00:00 16.8 21 Oeste 42 Oeste 0 1001.5 1.4 84
2019-04-22 22:00:00 17.3 19 Oeste 38 Sudoeste 0 1000.9 0.7 83
2019-04-22 21:00:00 17.7 17 Oeste 45 Oeste 0 1000.3 0.5 80
2019-04-22 20:00:00 18.1 18 Oeste 42 Sudoeste 0 1000.1 0.1 80
2019-04-22 19:00:00 18.1 18 Oeste 41 Sudoeste 0 1000.2 -0.4 81
2019-04-22 18:00:00 19 18 Oeste 45 Oeste 0 999.8 -1.8 76
2019-04-22 17:00:00 19.2 19 Oeste 35 Oeste 0 1000 -1.3 74
2019-04-22 16:00:00 18.1 13 Oeste 38 Oeste 0 1000.6 -1.1 71
2019-04-22 15:00:00 19.3 8 Oeste 32 Oeste 0 1001.6 -0.1 52
2019-04-22 14:00:00 18.6 14 Oeste 27 Sudoeste 0 1001.3 0 56
2019-04-22 13:00:00 18.4 9 Oeste 23 Noroeste 0 1001.7 0.8 56
2019-04-22 12:00:00 18 12 Noroeste 30 Noroeste 0 1001.7 0.8 51
2019-04-22 11:00:00 17.4 5 Noroeste 24 Norte 0 1001.3 0.3 56
2019-04-22 10:00:00 17.1 7 Noroeste 22 Noroeste 0 1000.9 0.5 57
2019-04-22 09:00:00 15.4 5 Noroeste 14 Noroeste 0 1000.9 0.1 70
2019-04-22 08:00:00 14.9 7 Noroeste 17 Noroeste 0 1001 -0.3 71
2019-04-22 07:00:00 13.3 3 Sudoeste 11 Sudoeste 0 1000.4 -1.5 94
2019-04-22 06:00:00 12.8 0 Calma 6 Nordeste 0 1000.8 -1.8 98
2019-04-22 05:00:00 13.4 0 Calma 8 Norte 0 1001.3 -2.1 98
2019-04-22 04:00:00 13.3 3 Nordeste 7 Nordeste 0 1001.9 -2.3 98
2019-04-22 03:00:00 13.8 0 Calma 8 Nordeste 0 1002.6 -1.9 97
2019-04-22 02:00:00 13.8 4 Nordeste 9 Norte 0 1003.4 -1.5 97
2019-04-22 01:00:00 14.4 2 Noroeste 4 Noroeste 0 1004.2 -0.4 96
2019-04-22 00:00:00 14.6 2 Oeste 8 Nordeste 0 1004.5 0 95
2019-04-21 23:00:00 14.7 5 Norte 9 Norte 0 1004.9 0.5 94
2019-04-21 22:00:00 15 4 Noroeste 16 Noroeste 0 1004.6 -0.1 90
2019-04-21 21:00:00 15.2 6 Oeste 20 Oeste 0 1004.5 -0.5 93
2019-04-21 20:00:00 15.6 8 Oeste 21 Oeste 0 1004.4 -0.5 91
2019-04-21 19:00:00 15.2 6 Sudoeste 21 Oeste 0.4 1004.7 -0.8 93
2019-04-21 18:00:00 15.4 4 Oeste 22 Oeste 1.9 1005 -0.8 94
2019-04-21 17:00:00 16.2 9 Oeste 26 Oeste 0 1004.9 -1.2 81
2019-04-21 16:00:00 15.7 12 Oeste 23 Oeste 0 1005.5 -1.2 80
2019-04-21 15:00:00 15.9 5 Oeste 17 Oeste 0 1005.8 -1.1 81
2019-04-21 14:00:00 15.6 8 Sudoeste 14 Sudoeste 0 1006.1 -0.8 89
2019-04-21 13:00:00 15.4 6 Sudoeste 16 Sudoeste 0 1006.7 -0.3 90
2019-04-21 12:00:00 15.3 7 Oeste 13 Sudoeste 0 1006.9 -0.2 88
2019-04-21 11:00:00 14.8 0 Calma 5 Noroeste 0 1006.9 0 95
2019-04-21 10:00:00 14 0 Calma 9 Este 0 1007 -0.1 99
2019-04-21 09:00:00 13.5 4 Nordeste 6 Norte 0.2 1007.1 -0.5 99
2019-04-21 08:00:00 13.6 3 Norte 6 Norte 1.9 1006.9 -0.9 99
2019-04-21 07:00:00 13.5 2 Norte 6 Nordeste 0.8 1007.1 -1.2 98
2019-04-21 06:00:00 13.7 4 Este 11 Nordeste 0.5 1007.6 -1.8 95
2019-04-21 05:00:00 14 0 Calma 6 Norte 0.1 1007.8 -2.3 91
2019-04-21 04:00:00 14.5 3 Oeste 9 Oeste 0 1008.3 -2.7 89
2019-04-21 03:00:00 14.6 4 Oeste 10 Noroeste 0.3 1009.4 -1.9 85
2019-04-21 02:00:00 15 4 Noroeste 7 Noroeste 0 1010.1 -1.7 83
2019-04-21 01:00:00 15.1 0 Calma 4 Nordeste 0 1011 -0.7 80
2019-04-21 00:00:00 15.4 2 Noroeste 10 Noroeste 0 1011.3 0.2 77
2019-04-20 23:00:00 15.5 0 Calma 9 Este 0 1011.8 1.2 76
2019-04-20 22:00:00 15.7 2 Sudeste 12 Sur 0 1011.7 1.7 76
2019-04-20 21:00:00 15.8 6 Sudeste 15 Sudeste 0 1011.1 0.9 77
2019-04-20 20:00:00 15.9 13 Sudeste 20 Sudeste 0 1010.6 0.4 77
2019-04-20 19:00:00 16.8 13 Sudeste 19 Sudeste 0 1010 -0.2 77
2019-04-20 18:00:00 16.6 7 Sudeste 14 Sudeste 0 1010.2 0.2 77
2019-04-20 17:00:00 16 9 Sudeste 15 Sudeste 0 1010.2 0.8 77
2019-04-20 16:00:00 17 6 Sudeste 10 Sudeste 0 1010.2 0.9 71
2019-04-20 15:00:00 17.3 5 Sur 23 Sudeste 0 1010 0 71
2019-04-20 14:00:00 16.3 21 Sudeste 28 Sudeste 0 1009.4 -1 74
2019-04-20 13:00:00 17 9 Sur 13 Sur 0 1009.3 -1.3 71
2019-04-20 12:00:00 17.5 0 Calma 8 Norte 0 1010 -0.6 66
2019-04-20 11:00:00 16 3 Nordeste 6 Norte 0 1010.4 0.7 77
2019-04-20 10:00:00 14.6 2 Nordeste 5 Nordeste 0 1010.6 1.6 81
2019-04-20 09:00:00 13.4 4 Nordeste 6 Nordeste 0 1010.6 1.2 85
2019-04-20 08:00:00 13.2 0 Calma 4 Nordeste 0 1009.7 -0.7 85
2019-04-20 07:00:00 13.1 0 Calma 8 Noroeste 0 1009 -2.3 82
2019-04-20 06:00:00 13.7 5 Noroeste 11 Noroeste 0 1009.4 -2.9 77
2019-04-20 05:00:00 12.8 0 Calma 4 Sur 0 1010.4 -2.8 87
2019-04-20 04:00:00 13.1 0 Calma 8 Nordeste 0 1011.3 -2.4 86
2019-04-20 03:00:00 12.9 4 Nordeste 9 Nordeste 0 1012.3 -2.2 88
2019-04-20 02:00:00 12.9 0 Calma 7 Norte 0 1013.2 -0.9 88
2019-04-20 01:00:00 13.5 3 Este 9 Este 0 1013.7 -0.2 84
2019-04-20 00:00:00 13.7 4 Nordeste 8 Nordeste 0 1014.5 0.8 84
2019-04-19 23:00:00 14.3 2 Nordeste 5 Noroeste 0 1014.1 0.8 77
2019-04-19 22:00:00 15.6 3 Sudoeste 7 Sur 0 1013.9 0.8 74
2019-04-19 21:00:00 15.8 5 Sudeste 11 Sudeste 0 1013.7 0.8 74
2019-04-19 20:00:00 16.6 6 Sudeste 21 Sudeste 0 1013.3 0.5 70
2019-04-19 19:00:00 16.8 9 Sudeste 15 Sur 0 1013.1 0.2 70
2019-04-19 18:00:00 19.1 9 Sudeste 14 Sudeste 0 1012.9 -0.4 64
2019-04-19 17:00:00 17.6 11 Sudeste 17 Sudeste 0 1012.8 -0.8 66
2019-04-19 16:00:00 19.1 12 Sudeste 17 Sudeste 0 1012.9 -0.8 65
2019-04-19 15:00:00 19.2 11 Sudeste 15 Sudeste 0 1013.3 -0.4 64
2019-04-19 14:00:00 19.3 9 Sudeste 19 Este 0 1013.6 0.6 62
2019-04-19 13:00:00 17.9 15 Sudeste 23 Sudeste 0 1013.7 0.9 65
2019-04-19 12:00:00 16.9 21 Sudeste 28 Sudeste 0 1013.7 1 70
2019-04-19 11:00:00 16.9 20 Sudeste 26 Sudeste 0 1013 0.6 70
2019-04-19 10:00:00 20 0 Calma 9 Este 0 1012.8 1 53
2019-04-19 09:00:00 15.9 4 Este 11 Nordeste 0 1012.7 1 66
2019-04-19 08:00:00 12.6 4 Norte 11 Sur 0 1012.4 0.4 70
2019-04-19 07:00:00 12.4 3 Sudeste 14 Noroeste 0 1011.8 -0.6 71
2019-04-19 06:00:00 13.5 4 Noroeste 10 Noroeste 0 1011.7 -0.9 69
2019-04-19 05:00:00 12.1 0 Calma 5 Noroeste 0 1012 -1.3 80
2019-04-19 04:00:00 12.8 0 Calma 8 Norte 0 1012.4 -0.7 74
2019-04-19 03:00:00 13.7 4 Noroeste 11 Noroeste 0 1012.6 -0.2 71
2019-04-19 02:00:00 15.2 7 Noroeste 18 Oeste 0 1013.3 1.1 69
2019-04-19 01:00:00 15.3 0 Calma 10 Norte 0 1013.1 1.2 61
2019-04-19 00:00:00 15.1 3 Norte 20 Noroeste 0 1012.8 1.2 61
2019-04-18 23:00:00 15.4 8 Noroeste 18 Noroeste 0 1012.2 1.1 62
2019-04-18 22:00:00 15.1 9 Oeste 21 Oeste 0 1011.9 0.6 84
2019-04-18 21:00:00 15.4 10 Oeste 21 Oeste 0 1011.6 0.1 75
2019-04-18 20:00:00 16.1 8 Oeste 18 Sudoeste 0 1011.1 -0.3 77
2019-04-18 19:00:00 16.6 8 Oeste 22 Sur 0 1011.3 -0.2 76
2019-04-18 18:00:00 16.4 12 Sudoeste 23 Oeste 0 1011.5 -0.1 75
2019-04-18 17:00:00 16.8 9 Sudoeste 22 Sudoeste 0 1011.4 -0.2 80
2019-04-18 16:00:00 16.4 10 Sudoeste 23 Oeste 0 1011.5 -0.4 68
2019-04-18 15:00:00 16.8 7 Sur 17 Sur 0 1011.6 -0.3 80
2019-04-18 14:00:00 16.1 12 Sudoeste 24 Sudoeste 0 1011.6 -0.4 81
2019-04-18 13:00:00 15.7 13 Sudoeste 25 Sudoeste 0 1011.9 -0.6 80
2019-04-18 12:00:00 14.8 12 Oeste 25 Oeste 0.2 1011.9 -0.4 87
2019-04-18 11:00:00 13.4 0 Calma 24 Norte 1.6 1012 0.5 86
2019-04-18 10:00:00 12.7 6 Noroeste 17 Norte 3.2 1012.5 1.7 95
2019-04-18 09:00:00 13.5 7 Norte 20 Norte 2.8 1012.3 1.2 95
2019-04-18 08:00:00 14.2 5 Oeste 31 Sudoeste 2.8 1011.5 0.5 98
2019-04-18 07:00:00 14.5 14 Oeste 31 Oeste 0.8 1010.8 0.1 99
2019-04-18 06:00:00 15.3 10 Oeste 31 Oeste 0.1 1011.1 -0.7 99
2019-04-18 05:00:00 15.5 5 Oeste 23 Sudoeste 1 1011 -1.1 99
2019-04-18 04:00:00 15.8 8 Sur 21 Sudoeste 0.2 1010.7 -2.1 99
2019-04-18 03:00:00 15.8 12 Sudoeste 22 Sudoeste 0.2 1011.8 -1.2 97
2019-04-18 02:00:00 16.2 9 Sur 21 Sur 0 1012.1 -1.9 91
2019-04-18 01:00:00 16.6 7 Oeste 17 Oeste 0 1012.8 -0.5 85
2019-04-18 00:00:00 16.9 11 Oeste 20 Oeste 0 1013 1.6 85
2019-04-17 23:00:00 16.7 9 Oeste 24 Oeste 0 1014 2.6 86
2019-04-17 22:00:00 16.5 13 Oeste 29 Oeste 0 1013.3 3.3 89
2019-04-17 21:00:00 16.5 13 Oeste 37 Oeste 0 1011.4 1.9 87
2019-04-17 20:00:00 16.6 15 Oeste 35 Oeste 0 1011.4 3.6 87
2019-04-17 19:00:00 17 12 Oeste 34 Sudoeste 0 1010 1.5 88
2019-04-17 18:00:00 17.2 21 Sudoeste 35 Sudoeste 0 1009.5 0.1 87
2019-04-17 17:00:00 18.9 24 Sudeste 38 Sudeste 0 1007.8 -2.5 76
2019-04-17 16:00:00 19.5 29 Sudeste 45 Este 0 1008.5 -3.3 70
2019-04-17 15:00:00 20.2 31 Sudeste 43 Este 0 1009.4 -3.6 64
2019-04-17 14:00:00 20.8 26 Sudeste 38 Este 0 1010.3 -2.8 65
2019-04-17 13:00:00 19.4 26 Sudeste 36 Sudeste 0 1011.8 -1.2 69
2019-04-17 12:00:00 18.3 24 Sudeste 32 Sudeste 0 1013 -0.2 76
2019-04-17 11:00:00 18 9 Oeste 17 Oeste 0 1013.1 -0.2 74
2019-04-17 10:00:00 17 5 Sudoeste 9 Sudoeste 0 1013 -0.7 74
2019-04-17 09:00:00 15.7 0 Calma 6 Nordeste 0 1013.2 -0.4 81
2019-04-17 08:00:00 13.4 3 Norte 9 Norte 0 1013.3 -0.2 85
2019-04-17 07:00:00 12.5 0 Calma 5 Este 0 1013.7 -0.4 90
2019-04-17 06:00:00 13.7 3 Este 5 Este 0 1013.6 -0.9 91
2019-04-17 05:00:00 14.2 0 Calma 8 Nordeste 0 1013.5 -1.3 89
2019-04-17 04:00:00 13.9 6 Nordeste 11 Nordeste 0 1014.1 -1.2 88
2019-04-17 03:00:00 15.2 0 Calma 7 Noroeste 0 1014.5 -1.2 86
2019-04-17 02:00:00 16 0 Calma 6 Oeste 0 1014.8 -0.5 85
2019-04-17 01:00:00 15.9 0 Calma 12 Oeste 0 1015.3 0.4 83
2019-04-17 00:00:00 16.6 6 Noroeste 19 Sudeste 0 1015.7 1.2 77
2019-04-16 23:00:00 17.4 17 Sudeste 22 Sudeste 0 1015.3 1.4 77
2019-04-16 22:00:00 17.1 4 Este 15 Oeste 0 1014.9 1.5 76
2019-04-16 21:00:00 17.6 3 Noroeste 16 Oeste 0 1014.5 1 80
2019-04-16 20:00:00 19.2 10 Noroeste 23 Sudeste 0 1013.9 -0.2 77
2019-04-16 19:00:00 19.4 16 Sudeste 24 Este 0 1013.4 -2 74
2019-04-16 18:00:00 19.3 17 Sudeste 30 Sudeste 0 1013.5 -2.2 80
2019-04-16 17:00:00 17.5 22 Sudeste 27 Sudeste 0 1014.1 -2.4 86
2019-04-16 16:00:00 17.7 17 Sur 26 Sudeste 0 1015.4 -1.8 86
2019-04-16 15:00:00 17.1 22 Sudeste 32 Sudeste 0 1015.7 -1 89
2019-04-16 14:00:00 17.8 16 Sudeste 31 Sudeste 0 1016.5 0 85
2019-04-16 13:00:00 18.1 27 Sudeste 35 Sudeste 0 1017.2 1 77
2019-04-16 12:00:00 19.8 12 Sudeste 23 Sudeste 0 1016.7 0.5 74
2019-04-16 11:00:00 17.4 15 Sudeste 21 Sudeste 0 1016.5 0.8 83
2019-04-16 10:00:00 19.1 6 Sudeste 10 Este 0 1016.2 1.1 80
2019-04-16 09:00:00 16.6 6 Este 13 Este 0 1016.2 1.2 90
2019-04-16 08:00:00 14.4 3 Nordeste 14 Oeste 0 1015.7 0.8 96
2019-04-16 07:00:00 15.1 4 Oeste 19 Oeste 0 1015.1 0.3 94
2019-04-16 06:00:00 15.6 4 Oeste 31 Oeste 0 1015 -0.1 94
2019-04-16 05:00:00 15.7 13 Oeste 39 Oeste 0 1014.9 0 93
2019-04-16 04:00:00 15.9 10 Oeste 23 Oeste 0 1014.8 0.2 90
2019-04-16 03:00:00 16 3 Norte 31 Oeste 0 1015.1 0.2 90
2019-04-16 02:00:00 16.3 18 Oeste 40 Sudoeste 0 1014.9 0.4 91
2019-04-16 01:00:00 16.8 16 Oeste 32 Oeste 0 1014.6 0.9 85
2019-04-16 00:00:00 16.6 7 Oeste 13 Oeste 0 1014.9 2.1 84
2019-04-15 23:00:00 17.1 2 Noroeste 32 Oeste 0 1014.5 1.8 77
2019-04-15 22:00:00 18 13 Oeste 35 Sudoeste 0 1013.7 0.8 77
2019-04-15 21:00:00 19.3 14 Oeste 35 Oeste 0 1012.8 0.2 63
2019-04-15 20:00:00 20.6 15 Sudoeste 28 Oeste 0 1012.7 0.6 57
2019-04-15 19:00:00 21.3 14 Oeste 27 Oeste 0 1012.9 0.8 48
2019-04-15 18:00:00 22.6 6 Sudoeste 26 Oeste 0 1012.6 0.1 51
2019-04-15 17:00:00 20.8 10 Sudoeste 20 Sudoeste 0 1012.1 -0.7 58
2019-04-15 16:00:00 20.6 8 Sudoeste 18 Sur 0 1012.1 -0.8 71
2019-04-15 15:00:00 20.3 10 Sudoeste 15 Sudoeste 0 1012.5 -0.6 57
2019-04-15 14:00:00 20.9 10 Sudoeste 20 Sudoeste 0 1012.8 -0.3 62
2019-04-15 13:00:00 19.4 7 Sudoeste 12 Sudoeste 0 1012.9 -0.1 69
2019-04-15 12:00:00 22.1 0 Calma 12 Sudoeste 0 1013.1 0.2 65
2019-04-15 11:00:00 20.6 4 Sur 7 Sur 0 1013.1 1.1 71
2019-04-15 10:00:00 20.4 2 Sur 7 Oeste 0 1013 1.3 77
2019-04-15 09:00:00 16.2 4 Noroeste 6 Noroeste 0 1012.9 0.8 77
2019-04-15 08:00:00 14.2 0 Calma 5 Nordeste 0 1012 -1.1 81
2019-04-15 07:00:00 14.3 3 Nordeste 6 Nordeste 0 1011.7 -1.2 84
2019-04-15 06:00:00 14.9 3 Norte 7 Norte 0 1012.1 -1.6 81
2019-04-15 05:00:00 15.9 0 Calma 6 Sudeste 0 1013.1 -1.2 83
2019-04-15 04:00:00 15.6 4 Nordeste 6 Nordeste 0 1012.9 -1.8 77
2019-04-15 03:00:00 16 2 Oeste 4 Oeste 0 1013.7 -0.9 77
2019-04-15 02:00:00 16.4 4 Nordeste 8 Nordeste 0 1014.3 -0.4 77
2019-04-15 01:00:00 16.4 0 Calma 9 Sudoeste 0 1014.7 0.3 84
2019-04-15 00:00:00 17.2 4 Sur 6 Sur 0 1014.6 0.5 77
2019-04-14 23:00:00 17.2 3 Norte 8 Oeste 0 1014.7 0.5 77
2019-04-14 22:00:00 17.9 3 Sudoeste 9 Oeste 0 1014.4 0.3 80
2019-04-14 21:00:00 18 6 Oeste 10 Oeste 0 1014.1 0 77
2019-04-14 20:00:00 19.7 4 Sudoeste 13 Sur 0 1014.2 -0.7 64
2019-04-14 19:00:00 19.2 8 Sudoeste 13 Sudoeste 0 1014.1 -1.4 77
2019-04-14 18:00:00 19.2 10 Sudoeste 14 Sudoeste 0 1014.1 -2.2 77
2019-04-14 17:00:00 19.2 8 Sur 14 Sudoeste 0 1014.9 -1.6 86
2019-04-14 16:00:00 19.1 8 Sur 12 Sur 0 1015.5 -1.4 85
2019-04-14 15:00:00 19.3 5 Sudeste 13 Sur 0 1016.3 -1.2 85
2019-04-14 14:00:00 18.4 7 Sur 13 Sur 0 1016.5 -0.8 86
2019-04-14 13:00:00 19 6 Sur 9 Sur 0 1016.9 -0.1 81
2019-04-14 12:00:00 19 6 Sur 11 Sur 0 1017.5 0.5 82
2019-04-14 11:00:00 19.3 6 Sur 10 Sur 0 1017.3 0.6 74
2019-04-14 10:00:00 19.6 4 Sur 6 Sur 0 1017 0.7 60
2019-04-14 09:00:00 16.8 3 Este 9 Sudoeste 0 1017 1.1 77
2019-04-14 08:00:00 15 6 Sudoeste 12 Sudoeste 0 1016.7 0.7 88
2019-04-14 07:00:00 14.4 3 Oeste 9 Sudoeste 0 1016.3 -0.2 80
2019-04-14 06:00:00 14.9 0 Calma 16 Sudoeste 0 1015.9 -1 84
2019-04-14 05:00:00 13.2 0 Calma 7 Nordeste 0 1016 -1.2 83
2019-04-14 04:00:00 13.4 3 Norte 13 Norte 0 1016.5 -0.8 88
2019-04-14 03:00:00 14.6 6 Oeste 12 Sudeste 0 1016.9 -0.6 81
2019-04-14 02:00:00 13.5 3 Norte 7 Norte 0 1017.2 -0.3 77
2019-04-14 01:00:00 14.2 0 Calma 8 Norte 0 1017.3 0.1 73
2019-04-14 00:00:00 14.7 5 Norte 10 Norte 0 1017.5 0.8 73
2019-04-13 23:00:00 16.1 5 Sudeste 14 Sudeste 0 1017.5 0.8 69
2019-04-13 22:00:00 17.1 3 Nordeste 9 Noroeste 0 1017.2 0.6 65
2019-04-13 21:00:00 17.9 6 Oeste 21 Oeste 0 1016.7 -0.1 64
2019-04-13 20:00:00 19.4 6 Sudoeste 16 Oeste 0 1016.7 -0.3 61
2019-04-13 19:00:00 20.4 5 Sudeste 10 Sudoeste 0 1016.6 -0.8 66
2019-04-13 18:00:00 19.2 6 Sur 14 Sudoeste 0 1016.8 -0.9 69
2019-04-13 17:00:00 19.3 8 Sudoeste 24 Oeste 0 1017 -0.9 66
2019-04-13 16:00:00 19.2 7 Sur 15 Sur 0 1017.4 -0.7 70
2019-04-13 15:00:00 19.9 6 Sur 12 Sur 0 1017.7 -0.3 62
2019-04-13 14:00:00 19.4 6 Sur 13 Sur 0 1017.9 -0.2 60
2019-04-13 13:00:00 17.9 7 Sur 14 Sur 0 1018.1 0.5 84
2019-04-13 12:00:00 16.8 11 Sur 14 Sur 0 1018 0.6 80
2019-04-13 11:00:00 18.9 5 Sur 10 Sudoeste 0 1018.1 1.2 71
2019-04-13 10:00:00 15.7 6 Sudoeste 11 Sudoeste 0 1017.6 1.2 74
2019-04-13 09:00:00 16.2 0 Calma 4 Este 0 1017.4 1.5 73
2019-04-13 08:00:00 12 0 Calma 5 Norte 0 1016.9 1.1 80
2019-04-13 07:00:00 13.7 4 Sur 7 Sur 0 1016.4 0.5 75
2019-04-13 06:00:00 13.2 3 Sudoeste 7 Sudoeste 0 1015.9 -0.5 77
2019-04-13 05:00:00 14 3 Sudeste 11 Este 0 1015.8 -1 71
2019-04-13 04:00:00 12.1 3 Sudeste 6 Este 0 1015.9 -0.6 77
2019-04-13 03:00:00 13.2 4 Norte 9 Nordeste 0 1016.4 0.2 73
2019-04-13 02:00:00 13.5 3 Noroeste 5 Noroeste 0 1016.8 0.8 74
2019-04-13 01:00:00 13.2 2 Nordeste 13 Este 0 1016.5 0.9 73
2019-04-13 00:00:00 14.2 4 Nordeste 8 Nordeste 0 1016.2 1.1 73
2019-04-12 23:00:00 14.3 5 Nordeste 10 Este 0 1016 1.1 71
2019-04-12 22:00:00 15.6 2 Nordeste 5 Nordeste 0 1015.6 0.6 76
2019-04-12 21:00:00 16.1 4 Este 11 Sudoeste 0 1015.1 0.1 77
2019-04-12 20:00:00 17.5 6 Sudoeste 16 Oeste 0 1014.9 -0.1 72
2019-04-12 19:00:00 17.8 6 Sur 21 Sudoeste 0 1015 -0.8 74
2019-04-12 18:00:00 19.3 11 Sudoeste 22 Oeste 0 1015 -1.2 54
2019-04-12 17:00:00 19.9 10 Sudoeste 18 Sudoeste 0 1015 -1.7 47
2019-04-12 16:00:00 19.6 6 Sur 12 Sudoeste 0 1015.8 -0.9 49
2019-04-12 15:00:00 18.8 8 Sudoeste 13 Sur 0 1016.2 -0.6 50
2019-04-12 14:00:00 19.1 9 Sur 15 Sudoeste 0 1016.7 0.4 52
2019-04-12 13:00:00 18.2 12 Sudoeste 16 Sur 0 1016.7 0.5 57
2019-04-12 12:00:00 18.9 8 Sudoeste 17 Sudoeste 0 1016.8 0.7 57
2019-04-12 11:00:00 19.8 6 Sur 11 Sudeste 0 1016.3 0.6 50
2019-04-12 10:00:00 19.9 2 Sur 8 Este 0 1016.2 1 50
2019-04-12 09:00:00 16.2 0 Calma 6 Este 0 1016.1 1.2 63
2019-04-12 08:00:00 12.9 3 Este 9 Este 0 1015.7 0.8 67
2019-04-12 07:00:00 12.2 0 Calma 7 Norte 0 1015.2 -0.1 70
2019-04-12 06:00:00 12.3 3 Nordeste 7 Nordeste 0 1014.9 -0.6 71
2019-04-12 05:00:00 12.2 0 Calma 8 Noroeste 0 1014.9 -0.7 74
2019-04-12 04:00:00 13.3 0 Calma 7 Nordeste 0 1015.3 -0.2 69
2019-04-12 03:00:00 14.3 0 Calma 12 Sudoeste 0 1015.5 0.4 73
2019-04-12 02:00:00 15 4 Nordeste 14 Oeste 0 1015.6 0.9 66
2019-04-12 01:00:00 15.3 5 Este 17 Sur 0 1015.5 1.2 75
2019-04-12 00:00:00 16.1 4 Sudoeste 12 Este 0 1015.1 1.6 70
2019-04-11 23:00:00 15.2 5 Sudeste 16 Sudeste 0 1014.7 1.5 84
2019-04-11 22:00:00 16.1 0 Calma 11 Nordeste 0 1014.3 1.3 77
2019-04-11 21:00:00 16.7 3 Nordeste 27 Oeste 0 1013.5 0.3 77
2019-04-11 20:00:00 17 12 Oeste 42 Oeste 0 1013.2 -0.3 77
2019-04-11 19:00:00 17.6 20 Oeste 42 Sudoeste 0 1013 -1.3 74
2019-04-11 18:00:00 18 19 Oeste 41 Oeste 0 1013.2 -1.9 71
2019-04-11 17:00:00 18.2 18 Sudoeste 39 Oeste 0 1013.5 -1.7 71
2019-04-11 16:00:00 17.1 19 Sudoeste 38 Oeste 0 1014.3 -1.2 70
2019-04-11 15:00:00 17.3 15 Sudoeste 35 Sudoeste 0 1015.1 -0.3 69
2019-04-11 14:00:00 19.1 14 Sudoeste 31 Oeste 0 1015.2 -0.1 66
2019-04-11 13:00:00 16.4 13 Sur 30 Sudoeste 0 1015.5 0 77
2019-04-11 12:00:00 17.3 14 Sudoeste 28 Sudoeste 0 1015.4 0 59
2019-04-11 11:00:00 19.6 11 Noroeste 28 Norte 0 1015.3 0.4 48
2019-04-11 10:00:00 17.7 8 Norte 26 Norte 0 1015.5 0.8 53
2019-04-11 09:00:00 16 5 Nordeste 16 Norte 0 1015.4 0.6 57
2019-04-11 08:00:00 13.6 5 Noroeste 9 Noroeste 0 1014.9 0.5 62
2019-04-11 07:00:00 12.8 4 Noroeste 9 Este 0 1014.7 0.4 64
2019-04-11 06:00:00 14.3 0 Calma 18 Este 0 1014.8 0.3 58
2019-04-11 05:00:00 14.9 7 Este 19 Noroeste 0 1014.4 -0.5 57
2019-04-11 04:00:00 15.7 8 Noroeste 29 Noroeste 0 1014.3 -0.7 54
2019-04-11 03:00:00 15.1 14 Noroeste 22 Noroeste 0 1014.5 -0.5 55
2019-04-11 02:00:00 16.9 12 Noroeste 21 Noroeste 0 1014.9 -0.1 51
2019-04-11 01:00:00 15.5 6 Noroeste 15 Oeste 0 1015 0.5 58
2019-04-11 00:00:00 16.1 5 Noroeste 12 Noroeste 0 1015 1.5 55
2019-04-10 23:00:00 15.6 6 Noroeste 19 Noroeste 0 1015 2.3 54
2019-04-10 22:00:00 17.5 10 Noroeste 29 Oeste 0 1014.5 2.5 49
2019-04-10 21:00:00 17.6 17 Noroeste 36 Noroeste 0 1013.5 1.1 48
2019-04-10 20:00:00 19 18 Noroeste 45 Noroeste 0 1012.7 0.5 43
2019-04-10 19:00:00 19.4 21 Noroeste 45 Noroeste 0 1012 -0.2 40
2019-04-10 18:00:00 19.7 20 Noroeste 55 Noroeste 0 1012.4 0.1 39
2019-04-10 17:00:00 19.7 19 Noroeste 60 Noroeste 0 1012.2 -0.5 39
2019-04-10 16:00:00 20.2 20 Noroeste 46 Noroeste 0 1012.2 -0.9 40
2019-04-10 15:00:00 19.6 23 Noroeste 50 Noroeste 0 1012.3 -0.9 43
2019-04-10 14:00:00 18.9 23 Oeste 41 Noroeste 0 1012.7 -0.8 51
2019-04-10 13:00:00 19.3 22 Noroeste 46 Noroeste 0 1013.1 -0.4 43
2019-04-10 12:00:00 18.1 24 Noroeste 49 Oeste 0 1013.2 -0.5 45
2019-04-10 11:00:00 17.1 25 Noroeste 51 Noroeste 0 1013.5 -0.2 49
2019-04-10 10:00:00 16.2 17 Noroeste 46 Noroeste 0 1013.5 0 53
2019-04-10 09:00:00 15.4 26 Noroeste 50 Noroeste 0 1013.7 0.4 54
2019-04-10 08:00:00 14.9 19 Oeste 38 Noroeste 0 1013.7 0 55
2019-04-10 07:00:00 15.1 15 Noroeste 34 Noroeste 0 1013.5 -0.4 57
2019-04-10 06:00:00 15.4 17 Noroeste 33 Noroeste 0 1013.3 -1.2 55
2019-04-10 05:00:00 15.4 13 Noroeste 29 Noroeste 0 1013.7 -1.2 59
2019-04-10 04:00:00 15.5 10 Noroeste 26 Noroeste 0 1013.9 -0.9 60
2019-04-10 03:00:00 15.3 10 Noroeste 22 Noroeste 0 1014.5 -0.5 60
2019-04-10 02:00:00 15.8 14 Noroeste 27 Noroeste 0 1014.9 -0.3 60
2019-04-10 01:00:00 15.8 14 Noroeste 34 Noroeste 0 1014.8 0 59
2019-04-10 00:00:00 16.6 8 Noroeste 28 Norte 0 1015 0.7 58
2019-04-09 23:00:00 17 7 Noroeste 18 Norte 0 1015.2 1.1 57
2019-04-09 22:00:00 17.2 10 Oeste 21 Oeste 0 1014.8 1.1 62
2019-04-09 21:00:00 16.5 11 Oeste 35 Sudoeste 0 1014.3 0.3 74
2019-04-09 20:00:00 16.7 17 Oeste 45 Oeste 0 1014.1 -0.1 75
2019-04-09 19:00:00 16.6 23 Oeste 54 Oeste 0 1013.7 -0.8 75
2019-04-09 18:00:00 17.2 18 Oeste 44 Sudoeste 0 1014 -1 76
2019-04-09 17:00:00 17.5 18 Oeste 52 Sudoeste 0 1014.2 -0.7 72
2019-04-09 16:00:00 16.5 26 Sudoeste 51 Oeste 0 1014.5 -0.9 74
2019-04-09 15:00:00 16.7 22 Oeste 49 Oeste 0 1015 -1 70
2019-04-09 14:00:00 16.5 22 Sudoeste 78 Sudoeste 0 1014.9 -0.9 63
2019-04-09 13:00:00 17.1 20 Oeste 40 Oeste 0 1015.4 -0.3 62
2019-04-09 12:00:00 16.5 16 Oeste 44 Oeste 0 1016 1 62
2019-04-09 11:00:00 17.7 17 Oeste 49 Noroeste 0 1015.8 1 46
2019-04-09 10:00:00 16.5 21 Noroeste 39 Noroeste 0 1015.7 1.3 48
2019-04-09 09:00:00 15.7 13 Noroeste 46 Noroeste 0 1015 1 49
2019-04-09 08:00:00 15 19 Noroeste 47 Noroeste 0 1014.8 0.8 51
2019-04-09 07:00:00 15.1 18 Noroeste 39 Noroeste 0 1014.4 0.2 50
2019-04-09 06:00:00 15.7 17 Noroeste 34 Noroeste 0 1014 -0.7 50
2019-04-09 05:00:00 15.8 17 Noroeste 36 Noroeste 0 1014 -0.7 53
2019-04-09 04:00:00 16 15 Oeste 30 Noroeste 0 1014.2 -0.9 59
2019-04-09 03:00:00 14.5 11 Oeste 25 Oeste 0 1014.7 0 85
2019-04-09 02:00:00 15.1 11 Oeste 24 Oeste 0 1014.7 -0.1 89
2019-04-09 01:00:00 15.2 13 Oeste 41 Oeste 0 1015.1 0.7 92
2019-04-09 00:00:00 15.2 16 Oeste 39 Oeste 0 1014.7 0.9 93
2019-04-08 23:00:00 15.6 14 Oeste 32 Sudoeste 0 1014.8 1.2 88
2019-04-08 22:00:00 15.9 17 Oeste 46 Oeste 0 1014.4 0.9 83
2019-04-08 21:00:00 16.4 21 Oeste 46 Oeste 0 1013.8 0.4 81
2019-04-08 20:00:00 17 17 Oeste 40 Sudoeste 0 1013.6 0 76
2019-04-08 19:00:00 17.5 20 Oeste 40 Oeste 0 1013.5 -1.1 75
2019-04-08 18:00:00 18.3 19 Oeste 47 Oeste 0 1013.4 -1.6 73
2019-04-08 17:00:00 17.8 23 Oeste 47 Oeste 0 1013.6 -1.4 77
2019-04-08 16:00:00 17.2 13 Oeste 39 Oeste 0 1014.6 -0.8 86
2019-04-08 15:00:00 16.7 17 Oeste 44 Oeste 0 1015 -0.4 86
2019-04-08 14:00:00 17.4 21 Oeste 44 Sudoeste 0 1015 -0.4 80
2019-04-08 13:00:00 16.9 19 Oeste 43 Oeste 0 1015.4 0.3 85
2019-04-08 12:00:00 16.4 18 Oeste 42 Oeste 0 1015.4 0.2 86
2019-04-08 11:00:00 16.1 17 Oeste 35 Oeste 0 1015.4 0.8 88
2019-04-08 10:00:00 15.9 12 Oeste 36 Oeste 0 1015.1 0.7 84
2019-04-08 09:00:00 15.2 15 Oeste 36 Oeste 0 1015.2 0.7 88
2019-04-08 08:00:00 14 6 Noroeste 15 Oeste 0 1014.6 -0.2 89
2019-04-08 07:00:00 14 6 Noroeste 23 Oeste 0 1014.4 -0.7 89
2019-04-08 06:00:00 14.9 14 Oeste 27 Oeste 0 1014.5 -1.1 89
2019-04-08 05:00:00 14.4 12 Oeste 26 Oeste 0 1014.8 -1 90
2019-04-08 04:00:00 13.3 4 Noroeste 9 Noroeste 0 1015.1 -1 91
2019-04-08 03:00:00 13.4 4 Oeste 14 Oeste 0 1015.6 -0.4 89
2019-04-08 02:00:00 13.9 3 Noroeste 9 Oeste 0 1015.8 -0.1 89
2019-04-08 01:00:00 14.1 3 Norte 11 Oeste 0 1016.1 0.3 89
2019-04-08 00:00:00 14.8 5 Oeste 20 Oeste 0 1016 0.7 90
2019-04-07 23:00:00 14.9 13 Sudoeste 24 Sudoeste 0 1015.9 0.7 93
2019-04-07 22:00:00 15.2 9 Oeste 23 Oeste 0 1015.8 1.3 86
2019-04-07 21:00:00 15.3 11 Oeste 26 Sudoeste 0 1015.3 1.5 81
2019-04-07 20:00:00 15.5 15 Oeste 31 Oeste 0 1015.2 1.4 76
2019-04-07 19:00:00 15.6 19 Oeste 40 Oeste 0 1014.5 1.1 74
2019-04-07 18:00:00 16.6 16 Oeste 40 Oeste 0 1013.8 0.3 69
2019-04-07 17:00:00 16.2 19 Oeste 44 Sudoeste 0 1013.8 0.4 71
2019-04-07 16:00:00 17 19 Oeste 41 Oeste 0 1013.4 0.4 64
2019-04-07 15:00:00 17.7 18 Noroeste 53 Noroeste 0 1013.5 0.7 48
2019-04-07 14:00:00 17.5 27 Noroeste 51 Noroeste 0 1013.4 1.5 48
2019-04-07 13:00:00 16.9 15 Noroeste 48 Noroeste 0 1013 1 50
2019-04-07 12:00:00 16.6 21 Noroeste 48 Noroeste 0 1012.8 1.1 51
2019-04-07 11:00:00 16 20 Noroeste 59 Noroeste 0 1011.9 0.9 53
2019-04-07 10:00:00 15.6 19 Noroeste 38 Noroeste 0 1012 0.8 54
2019-04-07 09:00:00 14.7 7 Noroeste 17 Noroeste 0 1011.7 1.4 59
2019-04-07 08:00:00 12.6 4 Noroeste 25 Oeste 0 1011 0.6 62
2019-04-07 07:00:00 13.1 10 Oeste 24 Oeste 0 1011.2 0.4 67
2019-04-07 06:00:00 12.2 7 Noroeste 31 Noroeste 0 1010.3 -0.9 65
2019-04-07 05:00:00 11.8 12 Noroeste 25 Noroeste 0 1010.4 -0.8 70
2019-04-07 04:00:00 11.4 10 Noroeste 18 Noroeste 0 1010.8 -0.5 77
2019-04-07 03:00:00 11.4 6 Noroeste 17 Noroeste 0.3 1011.2 0.1 76
2019-04-07 02:00:00 11.6 6 Noroeste 14 Noroeste 0 1011.2 0.9 74
2019-04-07 01:00:00 10.7 3 Noroeste 27 Norte 0.5 1011.3 1.2 76
2019-04-07 00:00:00 11.5 14 Norte 35 Noroeste 0 1011.1 1.8 71
2019-04-06 23:00:00 11.9 4 Noroeste 23 Noroeste 0.1 1010.3 1.9 75
2019-04-06 22:00:00 11.7 7 Noroeste 21 Noroeste 0.5 1010.1 2.2 77
2019-04-06 21:00:00 13.4 8 Norte 19 Norte 0 1009.3 1.8 74
2019-04-06 20:00:00 13.7 12 Oeste 29 Oeste 0.1 1008.4 0.8 75
2019-04-06 19:00:00 13.6 15 Oeste 39 Oeste 0 1007.9 -0.2 77
2019-04-06 18:00:00 13.8 18 Sudoeste 35 Sudoeste 0 1007.5 -0.6 73
2019-04-06 17:00:00 13.7 19 Sudoeste 38 Oeste 5.6 1007.6 -0.1 88
2019-04-06 16:00:00 13.5 19 Oeste 39 Oeste 0.2 1008.1 0.3 77
2019-04-06 15:00:00 13.6 19 Oeste 48 Oeste 0.1 1008.1 -0.1 75
2019-04-06 14:00:00 14.9 27 Sudoeste 52 Sudoeste 0 1007.7 -0.4 67
2019-04-06 13:00:00 14.8 28 Sudoeste 48 Sudoeste 0 1007.8 0 62
2019-04-06 12:00:00 15.1 20 Sudoeste 44 Sudoeste 0 1008.2 0.1 60
2019-04-06 11:00:00 14.5 18 Oeste 38 Oeste 0 1008.1 0.6 58
2019-04-06 10:00:00 14.3 9 Noroeste 23 Oeste 0 1007.8 0.6 56
2019-04-06 09:00:00 12.5 12 Oeste 23 Noroeste 0 1008.1 1.2 61
2019-04-06 08:00:00 11.6 11 Noroeste 21 Oeste 0 1007.5 0.7 64
2019-04-06 07:00:00 11.3 9 Noroeste 21 Oeste 0 1007.2 0.9 64
2019-04-06 06:00:00 11.4 11 Oeste 25 Oeste 0 1006.9 0.7 62
2019-04-06 05:00:00 10.7 6 Noroeste 18 Oeste 0 1006.8 0.4 66
2019-04-06 04:00:00 11.5 9 Oeste 22 Oeste 0 1006.3 0.1 62
2019-04-06 03:00:00 11.8 10 Oeste 21 Oeste 0 1006.2 0.4 60
2019-04-06 02:00:00 11.5 6 Noroeste 17 Oeste 0 1006.4 1 61
2019-04-06 01:00:00 11.6 6 Oeste 16 Oeste 0 1006.2 1.7 59
2019-04-06 00:00:00 12.1 8 Oeste 20 Noroeste 0 1005.8 2.5 55
2019-04-05 23:00:00 12.1 6 Noroeste 13 Noroeste 0 1005.4 3 54
2019-04-05 22:00:00 13.2 6 Noroeste 22 Noroeste 0 1004.5 2.5 48
2019-04-05 21:00:00 14.2 15 Noroeste 36 Noroeste 0 1003.3 1.3 43
2019-04-05 20:00:00 15.2 12 Noroeste 44 Oeste 0 1002.4 0.5 46
2019-04-05 19:00:00 14.9 21 Oeste 46 Sudoeste 0 1002 -0.5 65
2019-04-05 18:00:00 15.2 20 Sudoeste 39 Sudoeste 0 1002 -1 73
2019-04-05 17:00:00 14 16 Sudoeste 34 Sudoeste 0 1001.9 -1.4 76
2019-04-05 16:00:00 13.8 12 Oeste 36 Oeste 0.8 1002.5 -1.2 83
2019-04-05 15:00:00 12.4 17 Sudoeste 37 Sudoeste 2.3 1003 -0.6 95
2019-04-05 14:00:00 11.8 20 Sudoeste 39 Oeste 2.4 1003.3 -0.1 95
2019-04-05 13:00:00 13.5 20 Sudoeste 43 Oeste 0.1 1003.7 0.2 85
2019-04-05 12:00:00 12.8 23 Sudoeste 67 Sudoeste 0.5 1003.6 0 95
2019-04-05 11:00:00 12 0 Calma 14 Sur 1.5 1003.4 0 96
2019-04-05 10:00:00 11.3 4 Norte 13 Noroeste 1.8 1003.5 0.4 93
2019-04-05 09:00:00 12.5 8 Noroeste 29 Oeste 1.9 1003.6 0.8 83
2019-04-05 08:00:00 13.5 5 Noroeste 13 Noroeste 0 1003.4 0.4 65
2019-04-05 07:00:00 13.2 5 Noroeste 14 Noroeste 0 1003.1 -0.1 71
2019-04-05 06:00:00 13.4 6 Oeste 12 Oeste 0 1002.8 -0.8 76
2019-04-05 05:00:00 12.3 4 Noroeste 9 Noroeste 0 1003 -0.8 80
2019-04-05 04:00:00 12.2 4 Noroeste 9 Oeste 0 1003.2 -0.9 77
2019-04-05 03:00:00 13.8 6 Noroeste 35 Oeste 0 1003.6 -0.5 71
2019-04-05 02:00:00 14.3 17 Oeste 39 Oeste 0 1003.8 0 69
2019-04-05 01:00:00 14.3 19 Sudoeste 39 Oeste 0 1004.1 0.7 71
2019-04-05 00:00:00 14.5 14 Oeste 35 Sudoeste 0 1004.1 1.2 70
2019-04-04 23:00:00 14.9 13 Oeste 33 Oeste 0 1003.8 0.8 71
2019-04-04 22:00:00 15.3 12 Oeste 30 Oeste 0 1003.4 0.4 75
2019-04-04 21:00:00 15.5 13 Oeste 32 Oeste 0 1002.9 -0.4 69
2019-04-04 20:00:00 16.6 14 Oeste 32 Oeste 0 1003 -0.1 68
2019-04-04 19:00:00 17.2 12 Sudoeste 25 Sur 0 1003 -0.5 66
2019-04-04 18:00:00 18.5 5 Sudeste 14 Sur 0 1003.3 -0.6 64
2019-04-04 17:00:00 17.7 10 Sur 15 Sur 0 1003.1 -1 63
2019-04-04 16:00:00 18.5 8 Sur 27 Este 0 1003.5 -0.3 60
2019-04-04 15:00:00 17.9 19 Sudeste 28 Sudeste 0 1003.9 0.2 73
2019-04-04 14:00:00 17.6 21 Sudeste 30 Sudeste 0 1004.1 1 73
2019-04-04 13:00:00 17.3 23 Sudeste 33 Sudeste 0 1003.8 1.3 74
2019-04-04 12:00:00 18 21 Sudeste 35 Sudeste 0 1003.7 2.1 69
2019-04-04 11:00:00 17.1 18 Sudeste 33 Este 0 1003.1 2.6 70
2019-04-04 10:00:00 19.1 8 Este 28 Norte 0 1002.5 2.8 56
2019-04-04 09:00:00 16.6 7 Norte 26 Norte 0 1001.6 2.1 45
2019-04-04 08:00:00 15.5 6 Sudoeste 17 Oeste 0 1000.5 1.4 48
2019-04-04 07:00:00 15.6 3 Norte 19 Norte 0 999.7 0.6 48
2019-04-04 06:00:00 15.6 0 Calma 14 Noroeste 0 999.5 0.1 50
2019-04-04 05:00:00 16.3 6 Noroeste 16 Norte 0 999.1 -0.6 46
2019-04-04 04:00:00 16.5 4 Noroeste 8 Oeste 0 999.1 -1.2 45
2019-04-04 03:00:00 18 3 Sudoeste 18 Noroeste 0 999.4 -1.3 41
2019-04-04 02:00:00 19 8 Noroeste 22 Oeste 0 999.7 -1.3 41
2019-04-04 01:00:00 18.6 6 Noroeste 28 Noroeste 0 1000.3 -0.8 43
2019-04-04 00:00:00 19.7 16 Noroeste 35 Oeste 0 1000.7 -0.3 39
2019-04-03 23:00:00 20.3 13 Noroeste 25 Noroeste 0 1001 -0.3 43
2019-04-03 22:00:00 16.8 7 Oeste 17 Oeste 0 1001.1 -0.5 83
2019-04-03 21:00:00 17.7 0 Calma 17 Oeste 0 1001 -1 66
2019-04-03 20:00:00 19.1 7 Oeste 25 Oeste 0 1001.3 -1.6 64
2019-04-03 19:00:00 17.6 13 Sudoeste 23 Oeste 0 1001.6 -2.9 77
2019-04-03 18:00:00 18.9 8 Sur 18 Sur 0 1002 -3.7 75
2019-04-03 17:00:00 18.4 11 Sur 21 Sur 0 1002.9 -3.7 77
2019-04-03 16:00:00 19.1 7 Sudoeste 19 Oeste 0 1004.5 -2.7 69
2019-04-03 15:00:00 17.6 11 Sudoeste 16 Sur 0 1005.7 -1.6 77
2019-04-03 14:00:00 18 9 Sur 14 Sur 0 1006.6 -0.6 75
2019-04-03 13:00:00 19.2 7 Sudeste 15 Sudeste 0 1007.2 -0.2 71
2019-04-03 12:00:00 19.1 10 Sudeste 14 Sur 0 1007.3 -1 75
2019-04-03 11:00:00 17.4 9 Sudeste 13 Sudeste 0 1007.2 -1.4 77
2019-04-03 10:00:00 15.8 7 Sur 9 Sur 0 1007.4 -1.9 77
2019-04-03 09:00:00 12.9 2 Norte 6 Norte 0 1008.3 -1.4 90
2019-04-03 08:00:00 11.3 0 Calma 5 Este 0 1008.6 -1.8 96
2019-04-03 07:00:00 12 3 Norte 7 Norte 0 1009.3 -1.5 95
2019-04-03 06:00:00 12.5 0 Calma 5 Noroeste 0 1009.7 -1.9 95
2019-04-03 05:00:00 13.2 2 Noroeste 4 Norte 0 1010.4 -1.9 93
2019-04-03 04:00:00 13.5 5 Nordeste 9 Nordeste 0 1010.8 -2 88
2019-04-03 03:00:00 13.9 4 Nordeste 6 Nordeste 0 1011.6 -1.3 89
2019-04-03 02:00:00 14.2 2 Noroeste 9 Norte 0 1012.3 -0.3 86
2019-04-03 01:00:00 15 0 Calma 11 Norte 0 1012.8 0.4 85
2019-04-03 00:00:00 15 4 Noroeste 14 Noroeste 0 1012.9 0.9 84
2019-04-02 23:00:00 15.7 3 Norte 10 Sudoeste 0 1012.6 0.3 81
2019-04-02 22:00:00 16.3 0 Calma 7 Sudoeste 0 1012.4 -0.1 77
2019-04-02 21:00:00 16.3 0 Calma 23 Sudoeste 0 1012 -0.9 77
2019-04-02 20:00:00 16.6 15 Sudoeste 31 Oeste 0 1012.3 -0.9 77
2019-04-02 19:00:00 17.3 13 Sudoeste 26 Oeste 0 1012.5 -1.2 68
2019-04-02 18:00:00 18.9 10 Oeste 22 Oeste 0 1012.9 -1.2 66
2019-04-02 17:00:00 17.5 8 Sudoeste 17 Sur 0 1013.2 -1.6 77
2019-04-02 16:00:00 17.6 9 Sudoeste 17 Sudoeste 0 1013.7 -1.8 75
2019-04-02 15:00:00 18 8 Sur 13 Sudoeste 0 1014.1 -1.8 75
2019-04-02 14:00:00 16.9 8 Sur 14 Sur 0 1014.8 -0.8 77
2019-04-02 13:00:00 16.9 8 Sur 12 Sur 0 1015.5 -0.1 74
2019-04-02 12:00:00 16.5 7 Sur 11 Sur 0 1015.9 0.4 73
2019-04-02 11:00:00 17.5 6 Sur 8 Sur 0 1015.6 0.5 65
2019-04-02 10:00:00 17.5 3 Sudoeste 6 Sudoeste 0 1015.6 0.4 64
2019-04-02 09:00:00 13.7 2 Nordeste 6 Este 0 1015.5 0.6 80
2019-04-02 08:00:00 11.5 0 Calma 9 Norte 0 1015.1 0.2 90
2019-04-02 07:00:00 12 5 Nordeste 9 Nordeste 0 1015.2 -0.3 86
2019-04-02 06:00:00 11.5 4 Norte 6 Norte 0 1014.9 -0.8 90
2019-04-02 05:00:00 12.2 4 Noroeste 8 Norte 0 1014.9 -1.2 89
2019-04-02 04:00:00 12 3 Norte 5 Norte 0 1015.5 -0.4 90
2019-04-02 03:00:00 12.5 3 Norte 8 Norte 0 1015.7 0.1 89
2019-04-02 02:00:00 13.3 3 Norte 8 Norte 0 1016.1 0.9 89
2019-04-02 01:00:00 12.9 0 Calma 6 Nordeste 0 1015.9 1.3 90
2019-04-02 00:00:00 13.5 3 Norte 6 Nordeste 0 1015.6 1.9 86
2019-04-01 23:00:00 14.6 0 Calma 6 Norte 0 1015.2 2 84
2019-04-01 22:00:00 15.6 3 Norte 19 Oeste 0 1014.6 1.6 80
2019-04-01 21:00:00 16 9 Oeste 27 Sudoeste 0 1013.7 0.5 77
2019-04-01 20:00:00 17.2 10 Sudoeste 29 Sudoeste 0 1013.2 -0.2 71
2019-04-01 19:00:00 17.7 12 Sudoeste 30 Oeste 0 1013 -0.7 72
2019-04-01 18:00:00 17.6 17 Oeste 39 Sudoeste 0 1013.2 -0.6 74
2019-04-01 17:00:00 17.6 15 Sudoeste 30 Sudoeste 0 1013.4 -0.7 75
2019-04-01 16:00:00 17.4 10 Sur 20 Sudoeste 0 1013.7 -0.7 77
2019-04-01 15:00:00 17.1 12 Sudoeste 22 Sur 0 1013.8 -0.6 79
2019-04-01 14:00:00 16.8 12 Sudoeste 22 Sudoeste 0 1014.1 0.5 84
2019-04-01 13:00:00 17.2 7 Sur 15 Sudoeste 0 1014.4 1.5 83
2019-04-01 12:00:00 19 6 Sur 16 Sudoeste 0 1014.4 1.8 76
2019-04-01 11:00:00 16.4 8 Sudoeste 14 Sudoeste 0 1013.6 1.7 84
2019-04-01 10:00:00 17.7 5 Sur 8 Sur 0 1012.9 1.4 72
2019-04-01 09:00:00 14.4 0 Calma 5 Noroeste 0 1012.6 1.1 96
2019-04-01 08:00:00 12.6 0 Calma 7 Nordeste 0 1011.9 0.4 95
2019-04-01 07:00:00 14.2 0 Calma 8 Noroeste 0 1011.5 -0.3 95
2019-04-01 06:00:00 15 3 Oeste 17 Sur 0 1011.5 -0.6 95
2019-04-01 05:00:00 14.9 7 Sudoeste 17 Sudoeste 0 1011.5 -0.6 95
2019-04-01 04:00:00 15.2 7 Oeste 20 Sudoeste 0 1011.8 0 92
2019-04-01 03:00:00 15 11 Sudoeste 20 Sudoeste 0 1012.1 0.7 94
2019-04-01 02:00:00 15 7 Sudoeste 16 Sudoeste 0 1012.1 0.6 94
2019-04-01 01:00:00 15.2 5 Oeste 16 Sudoeste 0 1011.8 0.9 93
2019-04-01 00:00:00 15.1 5 Sudoeste 16 Oeste 0 1011.4 1.1 93
2019-03-31 23:00:00 15.2 7 Sudoeste 20 Sudoeste 0 1011.5 1.6 91
2019-03-31 22:00:00 15.1 8 Sudoeste 22 Oeste 0 1010.9 1.4 90
2019-03-31 21:00:00 14.9 10 Sudoeste 24 Oeste 0 1010.3 1.4 91
2019-03-31 20:00:00 14.9 12 Sudoeste 23 Sudoeste 0 1009.9 1.1 94
2019-03-31 19:00:00 14.9 8 Sudoeste 20 Sudoeste 0 1009.5 0 93
2019-03-31 18:00:00 15.1 6 Sur 14 Sudoeste 0 1008.9 -0.9 89
2019-03-31 17:00:00 15 6 Sudoeste 17 Sudoeste 0.2 1008.8 -1.6 93
2019-03-31 16:00:00 14.7 6 Sudoeste 20 Sudoeste 0.4 1009.5 -1.3 97
2019-03-31 15:00:00 14.6 8 Sudoeste 18 Sudoeste 0.1 1009.8 -1.2 95
2019-03-31 14:00:00 14.4 8 Oeste 15 Oeste 1.2 1010.4 -0.6 99
2019-03-31 13:00:00 14 6 Oeste 17 Sudoeste 1.6 1010.8 -0.1 99
2019-03-31 12:00:00 13.9 7 Oeste 14 Sudoeste 0.7 1011 0.1 99
2019-03-31 11:00:00 13.8 5 Oeste 11 Oeste 0.3 1011 0.1 99
2019-03-31 10:00:00 13.8 7 Oeste 13 Oeste 0.2 1010.9 0.1 99
2019-03-31 09:00:00 13.7 0 Calma 5 Oeste 0.1 1010.9 -0.3 99
2019-03-31 08:00:00 13.7 3 Oeste 5 Oeste 0 1010.9 -0.8 99
2019-03-31 07:00:00 13.6 0 Calma 6 Noroeste 0 1010.8 -1.6 99
2019-03-31 06:00:00 13.6 2 Nordeste 4 Sur 0.1 1011.2 -2.1 99
2019-03-31 05:00:00 13.6 3 Sudoeste 5 Sur 0.3 1011.7 -2.5 99
2019-03-31 03:00:00 13.8 5 Este 19 Este 0.8 1013.3 -2.5 99
2019-03-31 01:00:00 13.9 15 Este 21 Este 0.5 1014.2 -1.7 98
2019-03-31 00:00:00 14.6 15 Este 23 Este 0.1 1014.9 -1.1 94
2019-03-30 23:00:00 14.6 3 Nordeste 20 Sudeste 0.1 1015.8 0.6 91
2019-03-30 22:00:00 15.4 16 Sudeste 22 Este 0 1015.9 0.9 86
2019-03-30 21:00:00 15.6 4 Noroeste 21 Sudoeste 0 1016 1.5 85
2019-03-30 20:00:00 15.6 6 Sudoeste 19 Sudeste 0 1015.2 0.9 85
2019-03-30 19:00:00 16.1 12 Sudeste 23 Sudeste 0 1015 0.5 80
2019-03-30 18:00:00 16.9 6 Oeste 25 Sudeste 0 1014.5 -0.8 69
2019-03-30 17:00:00 16.7 19 Este 45 Este 0 1014.3 -1.6 71
2019-03-30 16:00:00 16.3 33 Sudeste 49 Este 0 1014.5 -2.6 74
2019-03-30 15:00:00 16.9 32 Este 51 Este 0 1015.3 -1.8 70
2019-03-30 14:00:00 16.8 36 Este 53 Este 0 1015.9 -2.3 69
2019-03-30 13:00:00 16.6 27 Este 42 Sudeste 0 1017.1 -1.5 70
2019-03-30 12:00:00 16.8 26 Este 42 Este 0 1017.1 -1.8 68
2019-03-30 11:00:00 17 17 Sudeste 27 Este 0 1018.2 -0.8 68
2019-03-30 10:00:00 16.7 11 Este 21 Este 0 1018.6 -0.7 69
2019-03-30 09:00:00 14.8 0 Calma 6 Nordeste 0 1018.9 -0.7 80
2019-03-30 08:00:00 11.7 2 Nordeste 6 Nordeste 0 1019 -0.6 93
2019-03-30 07:00:00 11.1 3 Nordeste 7 Norte 0 1019.3 -0.5 94
2019-03-30 06:00:00 11.7 5 Norte 9 Este 0 1019.6 -0.6 91
2019-03-30 05:00:00 12.8 0 Calma 5 Nordeste 0 1019.6 -1.1 90
2019-03-30 04:00:00 11.8 3 Norte 6 Nordeste 0 1019.8 -1.5 90
2019-03-30 03:00:00 11.9 4 Norte 10 Nordeste 0 1020.2 -1.4 91
2019-03-30 02:00:00 11.7 2 Noroeste 9 Nordeste 0 1020.7 -1.1 90
2019-03-30 01:00:00 11.8 3 Nordeste 7 Nordeste 0 1021.3 -0.7 88
2019-03-30 00:00:00 12.9 3 Este 9 Este 0 1021.6 0.3 84
2019-03-29 23:00:00 14.1 5 Nordeste 13 Este 0 1021.8 1.1 81
2019-03-29 22:00:00 14.4 5 Nordeste 31 Sudeste 0 1022 1.8 80
2019-03-29 21:00:00 15.1 16 Este 26 Este 0 1021.3 1.5 77
2019-03-29 20:00:00 15.3 15 Este 30 Este 0 1020.7 1 75
2019-03-29 19:00:00 15.9 21 Sudeste 34 Este 0 1020.2 0.1 73
2019-03-29 18:00:00 16.6 22 Sudeste 35 Este 0 1019.8 -0.9 71
2019-03-29 17:00:00 16.9 24 Este 41 Este 0 1019.7 -1.5 69
2019-03-29 16:00:00 16.8 31 Este 48 Este 0 1020.1 -1.7 70
2019-03-29 15:00:00 16.9 24 Sudeste 44 Este 0 1020.7 -1.2 71
2019-03-29 14:00:00 17.2 26 Este 46 Este 0 1021.2 -0.7 65
2019-03-29 13:00:00 17.5 25 Este 41 Este 0 1021.8 -0.4 63
2019-03-29 12:00:00 17.5 23 Sudeste 33 Sudeste 0 1021.9 -0.3 62
2019-03-29 11:00:00 17.3 14 Sudeste 23 Sudeste 0 1021.9 -0.6 57
2019-03-29 10:00:00 19.5 0 Calma 9 Sudeste 0 1022.2 0.7 46
2019-03-29 09:00:00 16.5 3 Norte 11 Este 0 1022.2 0.9 46
2019-03-29 08:00:00 11.7 2 Norte 12 Nordeste 0 1022.5 0.8 55
2019-03-29 07:00:00 11 0 Calma 9 Norte 0 1021.5 -0.1 53
2019-03-29 06:00:00 9.9 4 Noroeste 9 Norte 0 1021.3 -0.6 59
2019-03-29 05:00:00 10.2 5 Norte 10 Nordeste 0 1021.7 -0.6 55
2019-03-29 04:00:00 12.5 5 Oeste 11 Sudeste 0 1021.6 -1 54
2019-03-29 03:00:00 13.6 6 Este 17 Este 0 1021.9 -1 55
2019-03-29 02:00:00 12.3 0 Calma 10 Sudeste 0 1022.3 -0.8 55
2019-03-29 01:00:00 11.2 3 Noroeste 8 Norte 0 1022.6 -0.4 77
2019-03-29 00:00:00 11 5 Nordeste 8 Nordeste 0 1022.9 -0.1 77
2019-03-28 23:00:00 13.3 2 Noroeste 14 Nordeste 0 1023.1 0.3 74
2019-03-28 22:00:00 13.8 8 Este 21 Este 0 1023 0.7 73
2019-03-28 21:00:00 14.6 10 Este 39 Este 0 1023 1.4 70
2019-03-28 20:00:00 15.1 25 Este 45 Este 0 1022.8 0.9 73
2019-03-28 19:00:00 15.3 26 Este 48 Este 0 1022.3 -0.2 70
2019-03-28 18:00:00 16 31 Este 50 Este 0 1021.6 -1.5 64
2019-03-28 17:00:00 16.2 34 Este 49 Este 0 1021.9 -1.7 64
2019-03-28 16:00:00 16.3 33 Este 48 Este 0 1022.5 -1.3 59
2019-03-28 15:00:00 16.9 23 Este 49 Este 0 1023.1 -1.5 57
2019-03-28 14:00:00 16.7 30 Sudeste 49 Este 0 1023.6 -1.5 56
2019-03-28 13:00:00 16.9 30 Este 45 Sudeste 0 1023.8 -1.2 51
2019-03-28 12:00:00 16.7 30 Este 57 Sudeste 0 1024.6 -0.2 50
2019-03-28 11:00:00 17.2 22 Sudeste 36 Sudeste 0 1025.1 0.6 45
2019-03-28 10:00:00 17 18 Este 31 Este 0 1025 1 43
2019-03-28 09:00:00 17.6 4 Este 14 Norte 0 1024.8 1.4 50
2019-03-28 08:00:00 11.7 10 Norte 18 Norte 0 1024.5 1 70
2019-03-28 07:00:00 10.2 5 Norte 12 Norte 0 1024 0.7 74
2019-03-28 06:00:00 9.6 2 Norte 11 Nordeste 0 1023.4 0 77
2019-03-28 05:00:00 10.7 5 Norte 15 Este 0 1023.5 -0.3 77
2019-03-28 04:00:00 10.4 5 Nordeste 11 Noroeste 0 1023.3 -0.7 81
2019-03-28 03:00:00 11 3 Norte 11 Nordeste 0 1023.4 -0.5 80
2019-03-28 02:00:00 11.1 5 Nordeste 10 Nordeste 0 1023.8 0.2 80
2019-03-28 01:00:00 12 3 Nordeste 10 Norte 0 1024 0.7 76
2019-03-28 00:00:00 13.2 5 Nordeste 27 Este 0 1023.9 1.8 74
2019-03-27 23:00:00 14.4 19 Este 36 Este 0 1023.6 2.5 74
2019-03-27 22:00:00 14.7 25 Este 40 Este 0 1023.3 3.2 72
2019-03-27 21:00:00 15.1 24 Este 42 Este 0 1022.1 2.7 69
2019-03-27 20:00:00 15.6 22 Este 39 Este 0 1021.1 2.2 68
2019-03-27 19:00:00 15.9 21 Este 47 Este 0 1020.1 1.1 67
2019-03-27 18:00:00 16.4 28 Este 50 Este 0 1019.4 0.3 64
2019-03-27 17:00:00 17 33 Este 51 Este 0 1018.9 -0.5 59
2019-03-27 16:00:00 17.1 30 Este 49 Este 0 1019 -0.4 56
2019-03-27 15:00:00 17.3 31 Este 54 Este 0 1019.1 0.2 54
2019-03-27 14:00:00 17.6 28 Este 50 Este 0 1019.4 0.7 53
2019-03-27 13:00:00 17.9 25 Este 50 Este 0 1019.4 0.7 51
2019-03-27 12:00:00 17.7 31 Este 44 Este 0 1018.9 0.4 43
2019-03-27 11:00:00 19.1 13 Este 35 Este 0 1018.7 0.5 40
2019-03-27 10:00:00 20.1 0 Calma 12 Nordeste 0 1018.7 1.2 41
2019-03-27 09:00:00 17.1 4 Nordeste 21 Nordeste 0 1018.5 2.1 50
2019-03-27 08:00:00 13.3 4 Nordeste 18 Este 0 1018.2 1.9 56
2019-03-27 07:00:00 14.2 15 Este 27 Este 0 1017.5 1.3 56
2019-03-27 06:00:00 14.4 5 Sudeste 17 Sur 0 1016.4 0 57
2019-03-27 05:00:00 13.1 5 Norte 13 Noroeste 0 1016.3 -0.3 64
2019-03-27 04:00:00 12.7 4 Noroeste 10 Oeste 0 1016.2 -0.5 69
2019-03-27 03:00:00 12.5 4 Norte 17 Este 0 1016.4 0.1 65
2019-03-27 02:00:00 14.8 11 Este 28 Este 0 1016.6 0.9 60
2019-03-27 01:00:00 15 21 Este 41 Este 0 1016.7 1.4 61
2019-03-27 00:00:00 15.8 5 Este 24 Este 0 1016.3 2.7 64
2019-03-26 23:00:00 15.8 11 Este 30 Este 0 1015.7 3.7 68
2019-03-26 22:00:00 16.3 20 Este 33 Este 0 1015.3 3.4 70
2019-03-26 21:00:00 16.6 15 Este 27 Este 0 1013.6 2.5 71
2019-03-26 20:00:00 16.8 15 Este 48 Este 0 1012 1.6 73
2019-03-26 19:00:00 17.3 21 Este 57 Este 0 1011.9 1.1 71
2019-03-26 18:00:00 19.3 18 Este 41 Este 0 1011.1 0.2 60
2019-03-26 17:00:00 19.4 23 Este 52 Este 0 1010.4 -0.5 57
2019-03-26 16:00:00 19.4 29 Este 64 Este 0 1010.8 -- 55
2019-03-26 15:00:00 20.1 36 Este 61 Este 0 1010.9 -- 54
2019-03-26 14:00:00 20.4 32 Este -- -- -- 1010.9 -1.5 53
2019-03-26 13:00:00 -- -- -- -- -- -- -- -- --
2019-03-26 12:00:00 -- -- -- -- -- -- -- -- --
2019-03-26 11:00:00 19.2 8 Oeste 16 Oeste 0 1012.4 0.4 56
2019-03-26 10:00:00 21.6 0 Calma 5 Sur 0 1012.1 0.4 54
2019-03-26 09:00:00 19.5 0 Calma 7 Norte 0 1011.8 0 61
2019-03-26 08:00:00 13.6 4 Nordeste 8 Noroeste 0 1012 0 77
2019-03-26 07:00:00 13 0 Calma 10 Nordeste 0 1011.7 -0.5 81
2019-03-26 06:00:00 13.4 6 Nordeste 10 Nordeste 0 1011.8 -1.1 77
2019-03-26 05:00:00 12.6 3 Nordeste 6 Nordeste 0 1012 -1.6 85
2019-03-26 04:00:00 12.7 4 Noroeste 9 Este 0 1012.2 -2.2 85
2019-03-26 03:00:00 13.3 3 Nordeste 7 Nordeste 0 1012.9 -1.5 85
2019-03-26 02:00:00 13.7 5 Nordeste 8 Nordeste 0 1013.6 -0.9 80
2019-03-26 01:00:00 13.7 0 Calma 10 Norte 0 1014.4 0 77
2019-03-26 00:00:00 13.7 5 Norte 9 Norte 0 1014.4 0.5 77
2019-03-25 23:00:00 14.6 0 Calma 5 Este 0 1014.5 0.8 76
2019-03-25 22:00:00 16.2 3 Noroeste 6 Norte 0 1014.4 0.8 73
2019-03-25 21:00:00 16.6 4 Norte 8 Norte 0 1013.9 0.3 69
2019-03-25 20:00:00 17.3 5 Este 26 Este 0 1013.7 0.1 66
2019-03-25 19:00:00 19.4 14 Este 28 Este 0 1013.6 -0.5 59
2019-03-25 18:00:00 20.2 13 Este 29 Sur 0 1013.6 -1.1 56
2019-03-25 17:00:00 20.2 17 Sudeste 31 Este 0 1013.6 -2.3 59
2019-03-25 16:00:00 18.8 23 Sudeste 29 Sudeste 0 1014.1 -2.7 68
2019-03-25 15:00:00 18.7 17 Sur 27 Sudeste 0 1014.7 -2.6 69
2019-03-25 14:00:00 19.5 19 Sudeste 31 Sudeste 0 1015.9 -1.7 59
2019-03-25 13:00:00 19.7 8 Sur 22 Sur 0 1016.8 -0.9 61
2019-03-25 12:00:00 18.3 11 Sur 17 Sur 0 1017.3 -0.5 65
2019-03-25 11:00:00 19.4 8 Sudeste 13 Sudeste 0 1017.6 0 63
2019-03-25 10:00:00 19.4 5 Sur 9 Sur 0 1017.7 0.8 55
2019-03-25 09:00:00 19.3 2 Norte 6 Norte 0 1017.8 1 61
2019-03-25 08:00:00 13.7 3 Este 7 Sudeste 0 1017.6 0.9 75
2019-03-25 07:00:00 11.8 2 Noroeste 8 Nordeste 0 1016.9 -0.1 81
2019-03-25 06:00:00 12.3 2 Sudeste 9 Este 0 1016.8 -0.9 81
2019-03-25 05:00:00 12 3 Noroeste 9 Noroeste 0 1016.7 -1.4 83
2019-03-25 04:00:00 12.4 2 Sudeste 6 Norte 0 1017 -1.2 85
2019-03-25 03:00:00 12.2 2 Norte 8 Nordeste 0 1017.7 -0.9 85
2019-03-25 02:00:00 13 7 Norte 9 Norte 0 1018.1 -0.8 86
2019-03-25 01:00:00 13.7 2 Este 7 Nordeste 0 1018.2 -1 85
2019-03-25 00:00:00 14.1 2 Este 9 Oeste 0 1018.6 -0.3 85